Airfield :
LOGIN :

Register | Disclaimer

   EN    FR    IT 

 










Legend :    VFR   Marginal VFR   IFR   Intensive IFR   Very Intensive IFR
Visi :
Ceiling :
>= 8 km
>= 3000ft
5 to 8 km
1000 to 3000 ft
1500m to 5 km
500 to 1000 ft
800 to 1500m
200 to 500 ft
< 800m
< 200 ft
Symbols :   Thunderstorms  Fog  Heavy snow  Heavy precipitations  Wind > 20 kt
SIGMETs :     Misc.  Thunderstorms  Icing  Turbulence  Mountain Waves  Volcanic Ashes







- Airport Elevation : 600 ft
- IATA code : VIE


LOWW - Vienna Schwechat

CURRENT METAR :
  • 190150Z VRB01KT 3500 0300E R29/P1500D BCFG BR FEW002 08/08 Q1020 TEMPO 2500

EXPIRED METARs :
  • 190120Z 30003KT 4200 0500S R29/P1500U BCFG BR FEW200 09/08 Q1020 NOSIG
  • 190050Z 28003KT 4000 BR FEW090 09/08 Q1020 NOSIG
  • 190020Z 28003KT 4200 BR FEW090 09/08 Q1020 NOSIG
  • 182350Z 26004KT 4800 BR FEW090 11/10 Q1020 NOSIG
  • 182320Z 27002KT 5000 BR FEW090 09/08 Q1020 TEMPO 4000

TAF TAF LOWW
Valid from the 19 at 03:00 until the 20 at 09:00 UTC


190215Z 1903/2009 24003KT 6000 NSC TX19/1914Z TN08/1904Z
TEMPO 1903/1906 VRB02KT 3500 BCFG BR SCT040
BECMG 1906/1908 34008KT 9999 SCT040
TEMPO 2002/2006 30004KT 6000 NSC
No reported NOTAMs for that airfield.



MET'MAP, your aeronautical weather chart ! - Copyright ORBIFLY December 2007 - Disclaimer

ORBIFLY MET'MAP TEAM :

Programming & Development : Alexandra Zaïnal
Concept & Development : Baudouin d'Aumeries
Co-Development & Prog : Marc-Olivier Méhu
Technical & hardware support : Manuel Goepfert

Contact : metmap@orbifly.com




SOURCES & CREDITS :

   NOAA